createdAt,value
2018-02-23T00:02:16.975Z,31.92
2018-02-23T00:04:45.329Z,33.25
2018-02-23T00:07:13.671Z,34.10
2018-02-23T00:09:42.027Z,33.08
2018-02-23T00:12:10.359Z,33.33
2018-02-23T00:14:38.723Z,32.80
2018-02-23T00:17:07.050Z,33.47
2018-02-23T00:19:35.420Z,34.72
2018-02-23T00:22:03.768Z,34.65
2018-02-23T00:24:32.140Z,34.60
2018-02-23T00:27:00.490Z,34.97
2018-02-23T00:29:28.878Z,34.35
2018-02-23T00:31:57.227Z,33.17
2018-02-23T00:34:25.654Z,35.92
2018-02-23T00:36:54.009Z,34.50
2018-02-23T00:39:22.359Z,34.20
2018-02-23T00:41:50.726Z,34.00
2018-02-23T00:44:19.068Z,34.90
2018-02-23T00:46:47.431Z,34.50
2018-02-23T00:49:15.791Z,35.97
2018-02-23T00:51:44.170Z,33.20
2018-02-23T00:54:12.502Z,33.92
2018-02-23T00:56:40.898Z,34.05
2018-02-23T00:59:09.245Z,34.42
2018-02-23T01:01:37.566Z,35.00
2018-02-23T01:04:05.930Z,33.20
2018-02-23T01:06:34.259Z,34.33
2018-02-23T01:09:02.640Z,36.27
2018-02-23T01:11:30.965Z,36.15
2018-02-23T01:13:59.332Z,36.67
2018-02-23T01:16:27.684Z,35.38
2018-02-23T01:18:56.055Z,35.95
2018-02-23T01:21:24.507Z,35.28
2018-02-23T01:23:52.839Z,35.00
2018-02-23T01:26:21.207Z,35.95
2018-02-23T01:28:49.537Z,36.70
2018-02-23T01:31:17.895Z,36.40
2018-02-23T01:33:46.246Z,35.58
2018-02-23T01:36:14.618Z,36.40
2018-02-23T01:38:42.963Z,37.60
2018-02-23T01:41:11.335Z,37.42
2018-02-23T01:43:39.682Z,38.22
2018-02-23T01:46:08.084Z,37.45
2018-02-23T01:48:36.407Z,36.90
2018-02-23T01:51:04.776Z,38.10
2018-02-23T01:53:33.119Z,36.73
2018-02-23T01:56:01.477Z,37.87
2018-02-23T01:58:29.824Z,36.60
2018-02-23T02:00:58.160Z,38.20
2018-02-23T02:03:26.527Z,38.65
2018-02-23T02:05:54.877Z,38.25
2018-02-23T02:08:23.238Z,39.00
2018-02-23T02:10:51.586Z,38.15
2018-02-23T02:13:19.966Z,36.38
2018-02-23T02:15:48.382Z,38.78
2018-02-23T02:18:16.778Z,38.15
2018-02-23T02:20:45.074Z,39.93
2018-02-23T02:23:13.446Z,37.87
2018-02-23T02:25:41.798Z,36.83
2018-02-23T02:28:10.184Z,36.03
2018-02-23T02:30:38.556Z,38.78
2018-02-23T02:33:06.908Z,38.42
2018-02-23T02:35:35.267Z,36.28
2018-02-23T02:38:03.652Z,37.17
2018-02-23T02:40:32.028Z,36.75
2018-02-23T02:43:00.385Z,35.88
2018-02-23T02:45:28.736Z,38.30
2018-02-23T02:47:57.066Z,37.63
2018-02-23T02:50:25.449Z,40.50
2018-02-23T02:52:53.770Z,38.47
2018-02-23T02:55:22.146Z,39.55
2018-02-23T02:57:50.495Z,42.00
2018-02-23T03:00:18.846Z,39.42
2018-02-23T03:02:47.210Z,40.88
2018-02-23T03:05:15.554Z,40.40
2018-02-23T03:07:43.898Z,39.25
2018-02-23T03:10:12.244Z,39.42
2018-02-23T03:12:40.600Z,37.75
2018-02-23T03:15:08.932Z,38.77
2018-02-23T03:17:37.290Z,39.87
2018-02-23T03:20:05.667Z,39.33
2018-02-23T03:22:34.035Z,40.90
2018-02-23T03:25:02.369Z,42.50
2018-02-23T03:27:30.747Z,39.15
2018-02-23T03:29:59.089Z,40.08
2018-02-23T03:32:27.440Z,37.55
2018-02-23T03:34:55.810Z,38.50
2018-02-23T03:37:24.233Z,38.35
2018-02-23T03:39:52.594Z,39.47
2018-02-23T03:42:20.942Z,38.97
2018-02-23T03:44:49.300Z,38.67
2018-02-23T03:47:17.634Z,39.83
2018-02-23T03:49:46.004Z,39.07
2018-02-23T03:52:14.340Z,37.40
2018-02-23T03:54:42.745Z,36.20
2018-02-23T03:57:11.103Z,35.95
2018-02-23T03:59:39.441Z,36.00
2018-02-23T04:02:07.803Z,38.08
2018-02-23T04:04:36.156Z,39.13
2018-02-23T04:07:04.507Z,41.37
2018-02-23T04:09:32.851Z,40.90
2018-02-23T04:12:01.263Z,43.05
2018-02-23T04:14:29.582Z,42.38
2018-02-23T04:16:57.966Z,40.07
2018-02-23T04:19:26.791Z,41.60
2018-02-23T04:21:55.108Z,41.70
2018-02-23T04:24:23.470Z,42.25
2018-02-23T04:26:51.810Z,41.67
2018-02-23T04:29:20.204Z,41.90
2018-02-23T04:31:48.534Z,42.37
2018-02-23T04:34:16.888Z,42.45
2018-02-23T04:36:45.211Z,42.50
2018-02-23T04:39:13.569Z,43.00
2018-02-23T04:41:41.908Z,44.28
2018-02-23T04:44:10.322Z,43.38
2018-02-23T04:46:38.707Z,43.22
2018-02-23T04:49:07.055Z,41.22
2018-02-23T04:51:35.401Z,41.55
2018-02-23T04:54:03.731Z,40.00
2018-02-23T04:56:32.090Z,39.65
2018-02-23T04:59:00.427Z,39.13
2018-02-23T05:01:28.790Z,39.07
2018-02-23T05:03:57.267Z,37.43
2018-02-23T05:06:25.608Z,36.47
2018-02-23T05:08:53.950Z,36.55
2018-02-23T05:11:22.318Z,35.45
2018-02-23T05:13:50.705Z,36.90
2018-02-23T05:16:19.055Z,35.70
2018-02-23T05:18:47.465Z,36.83
2018-02-23T05:21:15.831Z,36.83
2018-02-23T05:23:44.169Z,38.30
2018-02-23T05:26:12.503Z,38.00
2018-02-23T05:28:40.851Z,36.60
2018-02-23T05:31:09.179Z,39.28
2018-02-23T05:33:37.531Z,37.20
2018-02-23T05:36:05.955Z,38.25
2018-02-23T05:38:34.308Z,39.97
2018-02-23T05:41:02.646Z,40.25
2018-02-23T05:43:31.120Z,40.42
2018-02-23T05:45:59.466Z,40.53
2018-02-23T05:48:27.813Z,39.78
2018-02-23T05:50:56.140Z,40.30
2018-02-23T05:53:24.500Z,41.10
2018-02-23T05:55:52.827Z,41.77
2018-02-23T05:58:21.147Z,42.50
2018-02-23T06:00:49.515Z,42.95
2018-02-23T06:03:17.855Z,43.08
2018-02-23T06:05:46.215Z,39.72
2018-02-23T06:08:14.563Z,38.70
2018-02-23T06:10:42.927Z,42.35
2018-02-23T06:13:11.274Z,42.78
2018-02-23T06:15:45.348Z,42.28
2018-02-23T06:18:13.689Z,42.10
2018-02-23T06:20:42.039Z,39.40
2018-02-23T06:23:10.374Z,42.45
2018-02-23T06:25:38.729Z,40.78
2018-02-23T06:28:07.066Z,42.00
2018-02-23T06:30:35.534Z,40.73
2018-02-23T06:33:03.898Z,41.17
2018-02-23T06:35:32.302Z,40.70
2018-02-23T06:38:00.650Z,41.60
2018-02-23T06:40:29.018Z,38.45
2018-02-23T06:42:57.360Z,40.17
2018-02-23T06:45:25.708Z,40.45
2018-02-23T06:47:54.042Z,41.00
2018-02-23T06:50:22.399Z,40.85
2018-02-23T06:52:50.759Z,40.97
2018-02-23T06:55:19.095Z,40.03
2018-02-23T06:57:47.439Z,40.67
2018-02-23T07:00:15.803Z,40.42
2018-02-23T07:02:44.157Z,41.22
2018-02-23T07:05:12.515Z,39.63
2018-02-23T07:07:40.862Z,41.00
2018-02-23T07:10:09.215Z,40.12
2018-02-23T07:12:37.547Z,39.97
2018-02-23T07:15:05.908Z,39.17
2018-02-23T07:17:34.242Z,38.30
2018-02-23T07:20:02.596Z,39.08
2018-02-23T07:22:30.928Z,38.90
2018-02-23T07:27:31.402Z,39.33
2018-02-23T07:29:59.764Z,39.10
2018-02-23T07:32:28.194Z,38.00
2018-02-23T07:34:56.541Z,37.08
2018-02-23T07:37:24.885Z,37.75
2018-02-23T07:39:53.295Z,36.45
2018-02-23T07:42:21.644Z,37.85
2018-02-23T07:44:50.046Z,36.72
2018-02-23T07:47:18.403Z,38.00
2018-02-23T07:49:46.743Z,39.15
2018-02-23T07:52:15.191Z,38.30
2018-02-23T07:54:43.523Z,36.67
2018-02-23T07:57:11.879Z,36.97
2018-02-23T07:59:40.235Z,36.08
2018-02-23T08:02:08.717Z,36.85
2018-02-23T08:04:37.059Z,36.40
2018-02-23T08:07:05.439Z,37.10
2018-02-23T08:09:33.808Z,36.35
2018-02-23T08:12:02.150Z,35.50
2018-02-23T08:14:30.496Z,36.83
2018-02-23T08:16:58.866Z,37.30
2018-02-23T08:19:27.206Z,36.30
2018-02-23T08:21:55.552Z,36.90
2018-02-23T08:24:23.882Z,37.53
2018-02-23T08:26:52.270Z,35.67
2018-02-23T08:29:20.755Z,36.90
2018-02-23T08:31:49.135Z,38.75
2018-02-23T08:34:17.514Z,35.60
2018-02-23T08:36:45.832Z,37.65
2018-02-23T08:39:14.167Z,35.50
2018-02-23T08:41:42.519Z,35.90
2018-02-23T08:44:10.859Z,36.50
2018-02-23T08:46:39.204Z,35.90
2018-02-23T08:49:07.542Z,36.67
2018-02-23T08:51:35.886Z,35.28
2018-02-23T08:54:04.244Z,34.90
2018-02-23T08:56:32.598Z,35.67
2018-02-23T08:59:00.922Z,36.37
2018-02-23T09:01:29.282Z,35.70
2018-02-23T09:03:57.619Z,34.33
2018-02-23T09:06:25.967Z,34.88
2018-02-23T09:08:54.424Z,35.20
2018-02-23T09:11:22.822Z,35.95
2018-02-23T09:13:51.267Z,35.10
2018-02-23T09:16:19.676Z,35.80
2018-02-23T09:18:48.002Z,33.45
2018-02-23T09:21:16.431Z,34.30
2018-02-23T09:23:44.830Z,34.70
2018-02-23T09:26:13.200Z,34.00
2018-02-23T09:28:41.670Z,35.10
2018-02-23T09:31:10.049Z,34.35
2018-02-23T09:33:50.249Z,35.92
2018-02-23T09:36:18.642Z,35.50
2018-02-23T09:38:47.165Z,34.97
2018-02-23T09:41:15.554Z,34.10
2018-02-23T09:43:44.110Z,35.30
2018-02-23T09:46:12.566Z,34.57
2018-02-23T09:48:40.988Z,34.37
2018-02-23T09:51:09.318Z,34.63
2018-02-23T09:53:37.651Z,35.65
2018-02-23T09:56:06.096Z,35.45
2018-02-23T09:58:34.451Z,35.30
2018-02-23T10:01:02.787Z,35.22
2018-02-23T10:03:31.131Z,35.95
2018-02-23T10:05:59.475Z,35.20
2018-02-23T10:08:27.814Z,35.38
2018-02-23T10:10:56.171Z,34.60
2018-02-23T10:13:24.530Z,33.88
2018-02-23T10:15:52.862Z,33.67
2018-02-23T10:18:21.205Z,33.87
2018-02-23T10:20:49.565Z,33.93
2018-02-23T10:23:17.914Z,34.57
2018-02-23T10:25:46.244Z,34.90
2018-02-23T10:28:14.689Z,34.25
2018-02-23T10:30:43.012Z,34.58
2018-02-23T10:33:11.383Z,36.75
2018-02-23T10:35:39.726Z,36.30
2018-02-23T10:38:08.113Z,36.85
2018-02-23T10:40:36.511Z,37.90
2018-02-23T10:43:04.903Z,35.58
2018-02-23T10:45:33.216Z,36.72
2018-02-23T10:48:01.556Z,35.75
2018-02-23T10:50:29.902Z,36.17
2018-02-23T10:57:34.859Z,35.50
2018-02-23T11:00:03.187Z,35.77
2018-02-23T11:02:31.675Z,34.47
2018-02-23T11:05:00.003Z,35.00
2018-02-23T11:07:28.343Z,34.85
2018-02-23T11:09:56.690Z,37.88
2018-02-23T11:12:25.020Z,35.65
2018-02-23T11:14:53.370Z,35.70
2018-02-23T11:17:21.824Z,35.53
2018-02-23T11:19:50.198Z,35.28
2018-02-23T11:22:18.551Z,36.55
2018-02-23T11:24:46.966Z,34.92
2018-02-23T11:27:15.279Z,35.92
2018-02-23T11:29:43.691Z,34.58
2018-02-23T11:32:12.090Z,35.28
2018-02-23T11:34:40.424Z,36.70
2018-02-23T11:37:08.755Z,35.70
2018-02-23T11:39:37.099Z,35.60
2018-02-23T11:42:05.422Z,35.27
2018-02-23T11:44:33.768Z,36.23
2018-02-23T11:47:02.092Z,35.50
2018-02-23T11:49:30.444Z,34.33
2018-02-23T11:51:58.772Z,33.75
2018-02-23T11:54:27.120Z,33.38
2018-02-23T11:56:55.449Z,32.55
2018-02-23T11:59:23.804Z,33.95
2018-02-23T12:01:52.223Z,33.20
2018-02-23T12:04:20.570Z,34.47
2018-02-23T12:06:48.916Z,34.33
2018-02-23T12:09:17.269Z,33.80
2018-02-23T12:11:45.614Z,34.67
2018-02-23T12:14:14.103Z,33.38
2018-02-23T12:16:42.427Z,35.20
2018-02-23T12:19:10.870Z,33.95
2018-02-23T12:21:39.250Z,35.28
2018-02-23T12:24:07.562Z,35.70
2018-02-23T12:26:35.902Z,37.70
2018-02-23T12:29:04.282Z,34.20
2018-02-23T12:31:32.620Z,35.30
2018-02-23T12:34:00.954Z,34.43
2018-02-23T12:36:29.305Z,33.67
2018-02-23T12:38:57.630Z,34.60
2018-02-23T12:41:26.063Z,33.80
2018-02-23T12:43:54.373Z,35.47
2018-02-23T12:46:22.715Z,34.30
2018-02-23T12:48:51.143Z,33.80
2018-02-23T12:51:19.587Z,33.08
2018-02-23T12:53:47.947Z,32.90
2018-02-23T12:56:16.306Z,33.65
2018-02-23T12:58:44.642Z,33.70
2018-02-23T13:01:13.099Z,33.72
2018-02-23T13:03:41.478Z,34.50
2018-02-23T13:06:09.958Z,34.75
2018-02-23T13:08:38.266Z,34.20
2018-02-23T13:11:06.614Z,33.63
2018-02-23T13:13:35.854Z,35.20
2018-02-23T13:16:04.174Z,34.25
2018-02-23T13:18:32.638Z,34.10
2018-02-23T13:21:01.050Z,35.95
2018-02-23T13:23:29.398Z,35.47
2018-02-23T13:25:57.708Z,34.67
2018-02-23T13:28:31.666Z,35.47
2018-02-23T13:31:00.176Z,35.28
2018-02-23T13:33:28.510Z,35.70
2018-02-23T13:35:56.839Z,36.67
2018-02-23T13:38:25.190Z,35.13
2018-02-23T13:40:59.135Z,33.13
2018-02-23T13:43:27.458Z,34.33
2018-02-23T13:45:55.802Z,34.50
2018-02-23T13:48:24.170Z,36.10
2018-02-23T13:50:52.723Z,33.80
2018-02-23T13:53:21.050Z,34.22
2018-02-23T13:55:49.380Z,35.08
2018-02-23T13:58:17.718Z,34.95
2018-02-23T14:00:46.066Z,34.05
2018-02-23T14:03:14.414Z,33.30
2018-02-23T14:05:45.579Z,34.75
2018-02-23T14:08:13.937Z,33.40
2018-02-23T14:10:42.260Z,34.10
2018-02-23T14:13:10.643Z,34.53
2018-02-23T14:15:39.068Z,34.30
2018-02-23T14:18:07.416Z,34.22
2018-02-23T14:20:35.717Z,33.42
2018-02-23T14:23:04.134Z,32.70
2018-02-23T14:25:32.455Z,33.87
2018-02-23T14:28:00.855Z,33.65
2018-02-23T14:30:29.232Z,33.20
2018-02-23T14:32:57.567Z,33.20
2018-02-23T14:35:25.979Z,33.00
2018-02-23T14:37:54.334Z,33.70
2018-02-23T14:40:22.779Z,33.70
2018-02-23T14:42:51.124Z,33.30
2018-02-23T14:45:19.539Z,33.63
2018-02-23T14:47:47.860Z,31.80
2018-02-23T14:50:27.955Z,34.20
2018-02-23T14:52:56.303Z,33.20
2018-02-23T14:55:24.675Z,32.75
2018-02-23T14:57:53.078Z,32.70
2018-02-23T15:00:21.463Z,31.60
2018-02-23T15:02:49.863Z,33.75
2018-02-23T15:05:18.200Z,31.85
2018-02-23T15:07:46.568Z,31.55
2018-02-23T15:10:14.914Z,31.35
2018-02-23T15:12:43.373Z,32.88
2018-02-23T15:15:11.743Z,30.50
2018-02-23T15:17:40.072Z,32.33
2018-02-23T15:20:08.418Z,33.65
2018-02-23T15:22:36.749Z,32.30
2018-02-23T15:25:05.083Z,32.85
2018-02-23T15:27:33.408Z,33.65
2018-02-23T15:30:01.979Z,31.52
2018-02-23T15:32:30.354Z,32.00
2018-02-23T15:34:58.760Z,31.80
2018-02-23T15:37:27.115Z,31.95
2018-02-23T15:39:55.440Z,33.17
2018-02-23T15:42:23.791Z,31.90
2018-02-23T15:44:52.191Z,30.55
2018-02-23T15:47:25.486Z,31.98
2018-02-23T15:49:54.137Z,32.03
2018-02-23T15:52:22.652Z,32.97
2018-02-23T15:54:50.969Z,30.45
2018-02-23T15:57:20.684Z,31.48
2018-02-23T15:59:49.091Z,32.55
2018-02-23T16:02:17.437Z,34.15
2018-02-23T16:04:45.992Z,33.72
2018-02-23T16:07:14.427Z,32.55
2018-02-23T16:09:42.758Z,33.22
2018-02-23T16:12:11.225Z,32.47
2018-02-23T16:14:39.546Z,31.35
2018-02-23T16:17:07.907Z,31.92
2018-02-23T16:19:36.245Z,31.48
2018-02-23T16:22:04.615Z,32.72
2018-02-23T16:24:33.158Z,31.95
2018-02-23T16:27:01.503Z,33.97
2018-02-23T16:29:29.830Z,31.50
2018-02-23T16:31:58.242Z,33.97
2018-02-23T16:34:26.623Z,33.37
2018-02-23T16:36:54.999Z,33.67
2018-02-23T16:39:23.378Z,32.27
2018-02-23T16:41:51.725Z,32.50
2018-02-23T16:44:20.096Z,34.73
2018-02-23T16:46:48.447Z,32.88
2018-02-23T16:49:16.777Z,31.87
2018-02-23T16:51:45.374Z,33.70
2018-02-23T16:54:13.755Z,32.70
2018-02-23T16:56:42.103Z,33.10
2018-02-23T16:59:10.478Z,32.58
2018-02-23T17:01:38.854Z,31.98
2018-02-23T17:04:07.187Z,32.17
2018-02-23T17:06:35.608Z,32.80
2018-02-23T17:09:03.954Z,33.10
2018-02-23T17:11:32.285Z,32.75
2018-02-23T17:14:00.779Z,33.50
2018-02-23T17:16:29.095Z,31.75
2018-02-23T17:18:57.451Z,31.85
2018-02-23T17:21:25.863Z,32.65
2018-02-23T17:23:54.216Z,33.33
2018-02-23T17:26:22.543Z,35.70
2018-02-23T17:28:50.913Z,34.43
2018-02-23T17:31:19.238Z,32.07
2018-02-23T17:33:47.579Z,33.43
2018-02-23T17:36:15.912Z,33.50
2018-02-23T17:38:44.255Z,33.07
2018-02-23T17:41:12.653Z,30.47
2018-02-23T17:43:40.949Z,33.77
2018-02-23T17:46:09.277Z,33.33
2018-02-23T17:48:37.668Z,32.27
2018-02-23T17:51:05.985Z,32.40
2018-02-23T17:53:34.335Z,33.07
2018-02-23T17:56:02.675Z,34.40
2018-02-23T17:58:31.012Z,33.03
2018-02-23T18:00:59.369Z,33.13
2018-02-23T18:03:27.841Z,31.67
2018-02-23T18:05:56.163Z,33.60
2018-02-23T18:08:24.507Z,33.65
2018-02-23T18:10:52.850Z,32.63
2018-02-23T18:13:21.311Z,34.03
2018-02-23T18:15:49.655Z,32.17
2018-02-23T18:18:18.015Z,33.50
2018-02-23T18:20:46.350Z,33.53
2018-02-23T18:23:14.764Z,34.03
2018-02-23T18:25:43.078Z,33.67
2018-02-23T18:28:11.432Z,34.92
2018-02-23T18:30:39.895Z,34.65
2018-02-23T18:33:08.285Z,33.38
2018-02-23T18:35:36.715Z,32.97
2018-02-23T18:38:05.058Z,36.93
2018-02-23T18:40:33.442Z,35.00
2018-02-23T18:43:01.889Z,33.07
2018-02-23T18:45:30.268Z,34.88
2018-02-23T18:47:58.645Z,33.50
2018-02-23T18:50:27.004Z,34.15
2018-02-23T18:52:55.379Z,35.03
2018-02-23T18:55:23.714Z,34.70
2018-02-23T18:57:52.086Z,36.00
2018-02-23T19:00:20.508Z,34.03
2018-02-23T19:02:48.926Z,35.80
2018-02-23T19:05:17.279Z,36.75
2018-02-23T19:07:45.624Z,38.20
2018-02-23T19:10:13.954Z,37.33
2018-02-23T19:12:42.307Z,37.08
2018-02-23T19:15:10.630Z,37.17
2018-02-23T19:17:38.982Z,38.40
2018-02-23T19:20:07.325Z,40.47
2018-02-23T19:22:35.661Z,37.70
2018-02-23T19:25:04.076Z,38.50
2018-02-23T19:27:32.459Z,37.83
2018-02-23T19:30:00.839Z,38.20
2018-02-23T19:32:29.193Z,40.03
2018-02-23T19:34:57.535Z,39.88
2018-02-23T19:37:25.871Z,38.83
2018-02-23T19:39:54.243Z,39.45
2018-02-23T19:42:22.599Z,38.65
2018-02-23T19:44:50.959Z,40.40
2018-02-23T19:47:19.324Z,38.88
2018-02-23T19:49:47.694Z,40.83
2018-02-23T19:52:16.036Z,40.92
2018-02-23T19:54:44.380Z,40.30
2018-02-23T19:57:12.770Z,44.90
2018-02-23T19:59:41.082Z,41.05
2018-02-23T20:02:09.446Z,41.17
2018-02-23T20:04:37.785Z,40.12
2018-02-23T20:07:06.143Z,40.58
2018-02-23T20:09:34.514Z,39.22
2018-02-23T20:12:02.871Z,39.13
2018-02-23T20:14:31.239Z,39.65
2018-02-23T20:16:59.591Z,39.25
2018-02-23T20:19:27.919Z,41.10
2018-02-23T20:21:56.262Z,40.53
2018-02-23T20:24:24.691Z,39.53
2018-02-23T20:26:53.030Z,40.25
2018-02-23T20:29:21.358Z,41.15
2018-02-23T20:31:49.715Z,40.55
2018-02-23T20:34:18.050Z,39.95
2018-02-23T20:36:46.410Z,39.10
2018-02-23T20:39:14.735Z,40.10
2018-02-23T20:41:43.085Z,39.90
2018-02-23T20:44:11.421Z,39.70
2018-02-23T20:46:39.771Z,38.55
2018-02-23T20:49:08.106Z,38.40
2018-02-23T20:51:36.461Z,38.35
2018-02-23T20:54:04.883Z,39.53
2018-02-23T20:56:33.255Z,38.10
2018-02-23T20:59:01.591Z,39.00
2018-02-23T21:01:29.954Z,38.50
2018-02-23T21:03:58.281Z,39.87
2018-02-23T21:06:26.638Z,39.50
2018-02-23T21:08:54.984Z,38.50
2018-02-23T21:11:23.318Z,39.10
2018-02-23T21:13:51.703Z,38.13
2018-02-23T21:16:20.052Z,37.47
2018-02-23T21:18:48.478Z,38.58
2018-02-23T21:21:16.874Z,37.17
2018-02-23T21:23:45.194Z,37.17
2018-02-23T21:26:13.560Z,37.83
2018-02-23T21:28:41.972Z,36.50
2018-02-23T21:31:10.318Z,36.03
2018-02-23T21:33:38.644Z,35.80
2018-02-23T21:36:07.033Z,36.20
2018-02-23T21:38:35.367Z,36.95
2018-02-23T21:41:03.707Z,35.40
2018-02-23T21:43:32.059Z,35.60
2018-02-23T21:46:00.418Z,35.25
2018-02-23T21:48:28.765Z,33.88
2018-02-23T21:50:57.101Z,35.65
2018-02-23T21:53:25.588Z,36.58
2018-02-23T21:55:53.973Z,36.27
2018-02-23T21:58:22.314Z,35.97
2018-02-23T22:00:50.657Z,35.13
2018-02-23T22:03:18.987Z,34.97
2018-02-23T22:05:47.344Z,35.60
2018-02-23T22:08:15.757Z,34.60
2018-02-23T22:10:44.097Z,36.28
2018-02-23T22:13:12.429Z,35.05
2018-02-23T22:15:40.851Z,35.30
2018-02-23T22:18:09.184Z,34.40
2018-02-23T22:20:37.540Z,33.65
2018-02-23T22:23:05.875Z,33.25
2018-02-23T22:25:34.302Z,33.85
2018-02-23T22:28:02.666Z,33.13
2018-02-23T22:30:31.072Z,33.65
2018-02-23T22:32:59.607Z,33.15
2018-02-23T22:35:28.002Z,32.35
2018-02-23T22:37:56.363Z,31.77
2018-02-23T22:40:24.702Z,34.23
2018-02-23T22:42:53.031Z,31.60
2018-02-23T22:45:21.432Z,33.57
2018-02-23T22:47:49.735Z,32.20
2018-02-23T22:50:18.086Z,32.20
2018-02-23T22:52:46.434Z,32.30
2018-02-23T22:55:14.788Z,32.80
2018-02-23T22:57:43.187Z,32.35
2018-02-23T23:00:11.544Z,34.53
2018-02-23T23:02:39.875Z,33.70
2018-02-23T23:05:08.355Z,33.30
2018-02-23T23:07:36.674Z,32.03
2018-02-23T23:10:05.027Z,32.00
2018-02-23T23:12:33.352Z,33.10
2018-02-23T23:15:01.691Z,32.40
2018-02-23T23:17:30.019Z,32.33
2018-02-23T23:19:58.362Z,33.70
2018-02-23T23:22:26.770Z,32.65
2018-02-23T23:24:55.107Z,32.45
2018-02-23T23:27:23.514Z,34.13
2018-02-23T23:29:51.877Z,32.97
2018-02-23T23:32:20.207Z,32.60
2018-02-23T23:34:48.692Z,34.43
2018-02-23T23:37:17.044Z,34.35
2018-02-23T23:39:45.369Z,34.78
2018-02-23T23:42:13.724Z,36.10
2018-02-23T23:44:42.055Z,36.05
2018-02-23T23:47:10.891Z,35.75
2018-02-23T23:49:39.211Z,37.10
2018-02-23T23:52:07.595Z,34.90
2018-02-23T23:54:35.990Z,35.63
2018-02-23T23:57:04.343Z,35.37
2018-02-23T23:59:32.748Z,37.53
